.
WxDataArchive / Data Records for 2009-12-16
2009-12-15 December 2009 2009-12-17

Data Records for Wednesday, 16 December 2009

Time	Temp	Chill	HIndex	Humid	Dewpt	 Wind 	HiWind	WindDir	Rain 	Barom 
-----	----	-----	------	-----	-----	------	------	-------	-----	----- 
00:00	20.0	20.0	20.0	66	10.5	1	2	248	0.00	30.497 
00:05	19.9	19.9	19.9	65	10.1	1	3	248	0.00	30.497 
00:10	19.7	19.7	19.7	65	9.9	1	3	248	0.00	30.497 
00:15	19.5	19.5	19.5	65	9.7	0	2	248	0.00	30.495 
00:20	19.4	19.4	19.4	65	9.6	0	2	292	0.00	30.495 
00:25	19.2	19.2	19.2	66	9.7	0	1	292	0.00	30.495 
00:30	19.1	19.1	19.1	66	9.6	0	1	292	0.00	30.497 
00:35	18.9	18.9	18.9	66	9.4	0	2	292	0.00	30.497 
00:40	18.8	18.8	18.8	67	9.7	0	0	---	0.00	30.497 
00:45	18.6	18.6	18.6	67	9.5	0	1	292	0.00	30.496 
00:50	18.6	18.6	18.6	68	9.8	0	0	---	0.00	30.496 
00:55	18.6	18.6	18.6	68	9.8	0	0	---	0.00	30.496 
01:00	18.6	18.6	18.6	69	10.2	0	0	---	0.00	30.499 
01:05	18.6	18.6	18.6	69	10.2	0	1	292	0.00	30.499 
01:10	18.8	18.8	18.8	70	10.7	0	2	292	0.00	30.499 
01:15	18.9	18.9	18.9	69	10.4	2	7	248	0.00	30.508 
01:20	18.9	18.9	18.9	69	10.4	1	7	248	0.00	30.508 
01:25	18.8	18.8	18.8	68	10.0	1	3	248	0.00	30.508 
01:30	18.4	18.4	18.4	68	9.6	1	2	270	0.00	30.513 
01:35	18.1	18.1	18.1	67	9.0	2	6	248	0.00	30.513 
01:40	17.8	17.8	17.8	66	8.4	2	6	270	0.00	30.513 
01:45	17.3	17.3	17.3	65	7.6	2	5	248	0.00	30.518 
01:50	17.2	17.2	17.2	66	7.8	1	2	270	0.00	30.518 
01:55	16.9	16.9	16.9	66	7.5	1	4	248	0.00	30.518 
02:00	16.5	16.5	16.5	67	7.5	1	2	248	0.00	30.516 
02:05	16.4	16.4	16.4	67	7.4	1	3	248	0.00	30.516 
02:10	16.4	16.4	16.4	67	7.4	1	3	248	0.00	30.516 
02:15	16.2	16.2	16.2	68	7.5	1	5	248	0.00	30.530 
02:20	16.2	16.2	16.2	68	7.5	1	3	248	0.00	30.530 
02:25	16.1	16.1	16.1	69	7.8	2	3	248	0.00	30.530 
02:30	16.1	16.1	16.1	69	7.8	0	2	225	0.00	30.535 
02:35	15.9	15.9	15.9	70	7.9	1	3	270	0.00	30.535 
02:40	15.9	15.9	15.9	70	7.9	1	5	248	0.00	30.535 
02:45	15.7	15.7	15.7	71	8.0	1	6	248	0.00	30.540 
02:50	15.6	15.6	15.6	71	7.9	2	6	270	0.00	30.540 
02:55	15.6	15.6	15.6	71	7.9	1	3	270	0.00	30.540 
03:00	15.6	15.6	15.6	71	7.9	1	3	248	0.00	30.549 
03:05	15.4	15.4	15.4	72	8.0	1	3	248	0.00	30.549 
03:10	15.4	15.4	15.4	72	8.0	1	6	248	0.00	30.549 
03:15	15.2	15.2	15.2	73	8.1	1	6	270	0.00	30.556 
03:20	15.2	15.2	15.2	73	8.1	2	6	248	0.00	30.556 
03:25	15.1	15.1	15.1	73	8.0	1	4	270	0.00	30.556 
03:30	15.1	15.1	15.1	73	8.0	1	3	270	0.00	30.554 
03:35	14.9	14.9	14.9	73	7.8	2	6	270	0.00	30.554 
03:40	14.8	14.8	14.8	73	7.7	1	3	248	0.00	30.554 
03:45	14.8	14.8	14.8	74	8.0	1	4	248	0.00	30.554 
03:50	14.8	14.8	14.8	74	8.0	2	5	248	0.00	30.554 
03:55	14.8	14.8	14.8	74	8.0	1	4	225	0.00	30.554 
04:00	14.6	14.6	14.6	74	7.8	1	3	248	0.00	30.552 
04:05	14.6	14.6	14.6	74	7.8	0	2	248	0.00	30.552 
04:10	14.4	14.4	14.4	74	7.7	1	5	248	0.00	30.552 
04:15	14.4	14.4	14.4	74	7.7	1	3	248	0.00	30.556 
04:20	14.4	14.4	14.4	74	7.7	0	2	248	0.00	30.556 
04:25	14.3	14.3	14.3	75	7.9	1	4	248	0.00	30.556 
04:30	14.3	14.3	14.3	75	7.9	0	2	248	0.00	30.555 
04:35	14.1	14.1	14.1	75	7.7	0	2	248	0.00	30.555 
04:40	14.1	14.1	14.1	75	7.7	1	3	248	0.00	30.555 
04:45	14.0	14.0	14.0	76	7.9	1	3	248	0.00	30.554 
04:50	14.0	14.0	14.0	76	7.9	1	2	248	0.00	30.554 
04:55	14.0	14.0	14.0	76	7.9	1	2	248	0.00	30.554 
05:00	13.8	13.8	13.8	76	7.7	0	1	248	0.00	30.555 
05:05	13.8	13.8	13.8	76	7.7	0	1	248	0.00	30.555 
05:10	13.8	13.8	13.8	76	7.7	0	2	248	0.00	30.555 
05:15	13.8	13.8	13.8	76	7.7	1	4	248	0.00	30.558 
05:20	13.8	13.8	13.8	76	7.7	1	4	248	0.00	30.558 
05:25	13.8	13.8	13.8	76	7.7	1	2	248	0.00	30.558 
05:30	13.6	13.6	13.6	76	7.5	1	4	248	0.00	30.556 
05:35	13.6	13.6	13.6	76	7.5	1	3	248	0.00	30.556 
05:40	13.5	13.5	13.5	76	7.4	0	2	248	0.00	30.556 
05:45	13.5	13.5	13.5	76	7.4	1	3	248	0.00	30.555 
05:50	13.3	13.3	13.3	76	7.2	0	1	248	0.00	30.555 
05:55	13.1	13.1	13.1	77	7.3	0	2	338	0.00	30.555 
06:00	13.1	13.1	13.1	77	7.3	0	3	248	0.00	30.556 
06:05	12.9	12.9	12.9	77	7.1	0	1	248	0.00	30.556 
06:10	12.9	12.9	12.9	77	7.1	0	2	248	0.00	30.556 
06:15	12.8	12.8	12.8	77	7.0	0	2	248	0.00	30.566 
06:20	12.8	12.8	12.8	77	7.0	1	3	248	0.00	30.566 
06:25	12.8	12.8	12.8	77	7.0	0	2	248	0.00	30.566 
06:30	12.8	12.8	12.8	77	7.0	0	1	248	0.00	30.563 
06:35	12.6	12.6	12.6	77	6.8	0	2	248	0.00	30.563 
06:40	12.6	12.6	12.6	77	6.8	0	1	248	0.00	30.563 
06:45	12.6	12.6	12.6	77	6.8	0	2	248	0.00	30.571 
06:50	12.6	12.6	12.6	77	6.8	1	2	248	0.00	30.571 
06:55	12.8	12.8	12.8	77	7.0	1	3	270	0.00	30.571 
07:00	12.8	12.8	12.8	77	7.0	1	4	248	0.00	30.577 
07:05	12.8	12.8	12.8	77	7.0	1	3	270	0.00	30.577 
07:10	12.8	12.8	12.8	76	6.7	1	2	248	0.00	30.577 
07:15	12.8	12.8	12.8	76	6.7	0	1	248	0.00	30.574 
07:20	12.8	12.8	12.8	76	6.7	1	3	248	0.00	30.574 
07:25	12.8	12.8	12.8	77	7.0	0	2	248	0.00	30.574 
07:30	12.8	12.8	12.8	77	7.0	0	2	248	0.00	30.570 
07:35	12.8	12.8	12.8	76	6.7	1	3	248	0.00	30.570 
07:40	12.9	12.9	12.9	76	6.8	0	2	248	0.00	30.570 
07:45	12.9	12.9	12.9	76	6.8	1	3	248	0.00	30.567 
07:50	12.9	12.9	12.9	76	6.8	1	5	248	0.00	30.567 
07:55	12.9	12.9	12.9	76	6.8	1	5	248	0.00	30.567 
08:00	13.1	13.1	13.1	76	7.0	1	4	248	0.00	30.571 
08:05	13.3	13.3	13.3	76	7.2	1	3	248	0.00	30.571 
08:10	13.3	13.3	13.3	76	7.2	1	4	248	0.00	30.571 
08:15	13.5	13.5	13.5	76	7.4	1	3	248	0.00	30.571 
08:20	13.5	13.5	13.5	76	7.4	1	3	248	0.00	30.571 
08:25	13.5	13.5	13.5	75	7.1	1	3	248	0.00	30.571 
08:30	13.6	13.6	13.6	76	7.5	1	4	248	0.00	30.573 
08:35	13.8	13.8	13.8	75	7.4	1	2	248	0.00	30.573 
08:40	13.8	13.8	13.8	75	7.4	1	4	248	0.00	30.573 
08:45	14.0	14.0	14.0	75	7.6	0	3	248	0.00	30.574 
08:50	14.0	14.0	14.0	75	7.6	1	3	248	0.00	30.574 
08:55	14.1	14.1	14.1	75	7.7	1	3	248	0.00	30.574 
09:00	14.1	14.1	14.1	75	7.7	1	4	248	0.00	30.576 
09:05	14.1	14.1	14.1	75	7.7	1	3	248	0.00	30.576 
09:10	14.3	14.3	14.3	74	7.6	1	4	248	0.00	30.576 
09:15	14.6	14.6	14.6	75	8.1	1	4	248	0.00	30.583 
09:20	14.6	14.6	14.6	74	7.8	1	4	248	0.00	30.583 
09:25	14.8	14.8	14.8	74	8.0	1	4	248	0.00	30.583 
09:30	14.9	14.9	14.9	74	8.1	0	4	248	0.00	30.589 
09:35	15.1	15.1	15.1	74	8.3	1	4	248	0.00	30.589 
09:40	14.9	14.9	14.9	74	8.1	1	3	225	0.00	30.589 
09:45	14.9	14.9	14.9	73	7.8	0	3	225	0.00	30.600 
09:50	15.2	15.2	15.2	74	8.4	1	4	248	0.00	30.600 
09:55	15.6	15.6	15.6	74	8.8	1	3	248	0.00	30.600 
10:00	16.1	16.1	16.1	74	9.3	0	1	248	0.00	30.591 
10:05	16.4	16.4	16.4	73	9.3	0	3	248	0.00	30.591 
10:10	16.4	16.4	16.4	72	9.0	1	3	248	0.00	30.591 
10:15	16.2	16.2	16.2	72	8.8	1	4	248	0.00	30.593 
10:20	16.2	16.2	16.2	72	8.8	1	4	248	0.00	30.593 
10:25	16.5	16.5	16.5	72	9.1	0	3	248	0.00	30.593 
10:30	17.0	17.0	17.0	72	9.6	1	3	248	0.00	30.602 
10:35	17.3	17.3	17.3	71	9.5	0	2	248	0.00	30.602 
10:40	17.7	17.7	17.7	71	9.9	0	2	248	0.00	30.602 
10:45	18.1	18.1	18.1	70	10.0	1	3	248	0.00	30.602 
10:50	18.4	18.4	18.4	69	10.0	1	3	270	0.00	30.602 
10:55	18.4	18.4	18.4	69	10.0	0	4	248	0.00	30.602 
11:00	18.6	18.6	18.6	68	9.8	1	4	248	0.00	30.587 
11:05	18.9	18.9	18.9	68	10.1	1	4	248	0.00	30.587 
11:10	19.2	19.2	19.2	68	10.4	1	3	248	0.00	30.587 
11:15	19.7	19.7	19.7	67	10.5	1	3	248	0.00	30.585 
11:20	19.9	19.9	19.9	67	10.7	1	4	248	0.00	30.585 
11:25	19.7	19.7	19.7	66	10.2	2	5	248	0.00	30.585 
11:30	19.7	19.7	19.7	66	10.2	1	3	248	0.00	30.578 
11:35	19.9	19.9	19.9	65	10.1	1	3	292	0.00	30.578 
11:40	19.9	19.9	19.9	65	10.1	1	3	225	0.00	30.578 
11:45	20.3	20.3	20.3	64	10.1	0	2	270	0.00	30.570 
11:50	20.6	20.6	20.6	64	10.4	0	3	270	0.00	30.570 
11:55	20.8	20.8	20.8	63	10.2	1	4	248	0.00	30.570 
12:00	21.1	21.1	21.1	60	9.4	2	4	248	0.00	30.566 
12:05	21.3	21.3	21.3	62	10.3	0	2	248	0.00	30.566 
12:10	21.6	21.6	21.6	61	10.3	1	5	248	0.00	30.566 
12:15	21.8	21.8	21.8	60	10.1	0	2	248	0.00	30.555 
12:20	22.1	22.1	22.1	58	9.6	1	5	248	0.00	30.555 
12:25	22.2	22.2	22.2	58	9.7	1	3	248	0.00	30.555 
12:30	22.4	22.4	22.4	57	9.5	1	3	270	0.00	30.554 
12:35	22.4	22.4	22.4	54	8.3	1	3	0	0.00	30.554 
12:40	22.7	22.7	22.7	57	9.8	1	3	248	0.00	30.554 
12:45	22.9	22.9	22.9	56	9.6	1	5	225	0.00	30.540 
12:50	23.0	23.0	23.0	53	8.4	1	4	248	0.00	30.540 
12:55	23.3	23.3	23.3	54	9.1	1	2	248	0.00	30.540 
13:00	23.9	23.9	23.9	54	9.7	1	2	248	0.00	30.533 
13:05	24.2	24.2	24.2	52	9.1	1	4	270	0.00	30.533 
13:10	24.2	24.2	24.2	50	8.3	1	3	315	0.00	30.533 
13:15	24.4	24.4	24.4	48	7.6	1	3	248	0.00	30.533 
13:20	24.5	24.5	24.5	49	8.1	1	6	248	0.00	30.533 
13:25	24.7	24.7	24.7	49	8.3	1	4	338	0.00	30.533 
13:30	25.0	25.0	25.0	48	8.1	1	3	248	0.00	30.523 
13:35	25.3	25.3	25.3	47	7.9	1	3	248	0.00	30.523 
13:40	25.1	25.1	25.1	46	7.3	1	4	270	0.00	30.523 
13:45	25.3	25.3	25.3	47	7.9	1	3	270	0.00	30.519 
13:50	25.4	25.4	25.4	47	8.0	1	5	315	0.00	30.519 
13:55	25.7	25.7	25.7	46	7.8	2	4	270	0.00	30.519 
14:00	25.8	25.8	25.8	46	7.9	1	3	225	0.00	30.520 
14:05	25.8	25.8	25.8	46	7.9	1	3	292	0.00	30.520 
14:10	26.0	26.0	26.0	46	8.1	1	4	338	0.00	30.520 
14:15	26.1	26.1	26.1	45	7.7	2	4	292	0.00	30.520 
14:20	26.3	26.3	26.3	46	8.4	1	2	270	0.00	30.520 
14:25	26.4	26.4	26.4	45	8.0	0	2	315	0.00	30.520 
14:30	26.6	26.6	26.6	44	7.7	0	2	292	0.00	30.517 
14:35	26.6	26.6	26.6	44	7.7	1	3	292	0.00	30.517 
14:40	26.6	26.6	26.6	44	7.7	1	3	315	0.00	30.517 
14:45	26.7	26.7	26.7	44	7.8	1	3	248	0.00	30.517 
14:50	26.7	26.7	26.7	44	7.8	1	4	248	0.00	30.517 
14:55	26.7	26.7	26.7	44	7.8	0	2	248	0.00	30.517 
15:00	26.6	26.6	26.6	43	7.2	1	2	270	0.00	30.515 
15:05	26.7	26.7	26.7	44	7.8	1	2	315	0.00	30.515 
15:10	27.0	27.0	27.0	46	9.0	0	1	315	0.00	30.515 
15:15	27.2	27.2	27.2	45	8.7	0	2	338	0.00	30.509 
15:20	27.3	27.3	27.3	43	7.8	1	5	225	0.00	30.509 
15:25	27.3	27.3	27.3	44	8.3	1	2	225	0.00	30.509 
15:30	27.5	27.5	27.5	43	8.0	1	4	225	0.00	30.508 
15:35	27.5	27.5	27.5	42	7.5	0	3	315	0.00	30.508 
15:40	27.3	27.3	27.3	43	7.8	1	3	0	0.00	30.508 
15:45	27.3	27.3	27.3	43	7.8	0	2	0	0.00	30.506 
15:50	27.2	27.2	27.2	43	7.7	0	1	0	0.00	30.506 
15:55	27.3	27.3	27.3	43	7.8	0	3	248	0.00	30.506 
16:00	27.3	27.3	27.3	43	7.8	0	3	248	0.00	30.509 
16:05	27.5	27.5	27.5	42	7.5	1	4	248	0.00	30.509 
16:10	27.5	27.5	27.5	42	7.5	1	4	225	0.00	30.509 
16:15	27.3	27.3	27.3	41	6.7	1	3	248	0.00	30.521 
16:20	27.3	27.3	27.3	42	7.3	1	2	248	0.00	30.521 
16:25	27.2	27.2	27.2	42	7.2	0	2	248	0.00	30.521 
16:30	27.0	27.0	27.0	42	7.0	1	3	248	0.00	30.522 
16:35	26.9	26.9	26.9	41	6.4	1	3	248	0.00	30.522 
16:40	26.6	26.6	26.6	42	6.6	0	2	248	0.00	30.522 
16:45	26.4	26.4	26.4	42	6.5	0	2	248	0.00	30.521 
16:50	26.3	26.3	26.3	42	6.4	0	2	248	0.00	30.521 
16:55	26.0	26.0	26.0	42	6.1	0	2	248	0.00	30.521 
17:00	25.8	25.8	25.8	42	5.9	0	2	248	0.00	30.520 
17:05	25.7	25.7	25.7	43	6.3	0	1	248	0.00	30.520 
17:10	25.6	25.6	25.6	43	6.2	0	1	248	0.00	30.520 
17:15	25.4	25.4	25.4	42	5.5	1	3	248	0.00	30.520 
17:20	25.3	25.3	25.3	43	6.0	0	3	248	0.00	30.520 
17:25	25.3	25.3	25.3	42	5.5	0	2	248	0.00	30.520 
17:30	25.4	25.4	25.4	43	6.1	1	3	248	0.00	30.520 
17:35	25.4	25.4	25.4	42	5.5	1	3	248	0.00	30.520 
17:40	25.6	25.6	25.6	42	5.7	0	3	248	0.00	30.520 
17:45	25.7	25.7	25.7	42	5.8	1	3	248	0.00	30.520 
17:50	25.7	25.7	25.7	42	5.8	1	3	248	0.00	30.520 
17:55	25.7	25.7	25.7	42	5.8	0	2	248	0.00	30.520 
18:00	25.8	25.8	25.8	42	5.9	0	1	248	0.00	30.520 
18:05	25.8	25.8	25.8	42	5.9	0	1	248	0.00	30.520 
18:10	25.8	25.8	25.8	42	5.9	0	1	248	0.00	30.520 
18:15	25.7	25.7	25.7	42	5.8	0	2	248	0.00	30.520 
18:20	25.7	25.7	25.7	43	6.3	0	1	248	0.00	30.520 
18:25	25.6	25.6	25.6	43	6.2	0	0	---	0.00	30.520 
18:30	25.4	25.4	25.4	43	6.1	0	3	248	0.00	30.520 
18:35	25.3	25.3	25.3	43	6.0	0	3	248	0.00	30.520 
18:40	25.1	25.1	25.1	43	5.8	0	1	248	0.00	30.520 
18:45	25.0	25.0	25.0	45	6.7	0	3	248	0.00	30.518 
18:50	24.7	24.7	24.7	44	5.9	0	0	---	0.00	30.518 
18:55	24.4	24.4	24.4	45	6.1	0	0	---	0.00	30.518 
19:00	24.2	24.2	24.2	46	6.4	0	0	---	0.00	30.521 
19:05	23.9	23.9	23.9	46	6.2	0	0	---	0.00	30.521 
19:10	23.6	23.6	23.6	47	6.4	0	0	---	0.00	30.521 
19:15	23.3	23.3	23.3	48	6.5	0	0	---	0.00	30.523 
19:20	23.0	23.0	23.0	50	7.2	0	0	---	0.00	30.523 
19:25	22.7	22.7	22.7	50	6.9	0	0	---	0.00	30.523 
19:30	22.4	22.4	22.4	50	6.6	0	0	---	0.00	30.522 
19:35	22.1	22.1	22.1	52	7.2	0	0	---	0.00	30.522 
19:40	21.6	21.6	21.6	52	6.7	0	0	---	0.00	30.522 
19:45	21.3	21.3	21.3	52	6.4	0	0	---	0.00	30.520 
19:50	21.1	21.1	21.1	53	6.7	0	0	---	0.00	30.520 
19:55	20.8	20.8	20.8	54	6.8	0	0	---	0.00	30.520 
20:00	20.6	20.6	20.6	55	7.0	0	0	---	0.00	30.518 
20:05	20.5	20.5	20.5	56	7.3	0	0	---	0.00	30.518 
20:10	20.3	20.3	20.3	57	7.5	0	0	---	0.00	30.518 
20:15	20.2	20.2	20.2	59	8.2	0	0	---	0.00	30.511 
20:20	19.9	19.9	19.9	60	8.3	0	0	---	0.00	30.511 
20:25	19.7	19.7	19.7	59	7.7	0	0	---	0.00	30.511 
20:30	19.4	19.4	19.4	60	7.8	0	0	---	0.00	30.513 
20:35	19.2	19.2	19.2	60	7.6	0	0	---	0.00	30.513 
20:40	19.2	19.2	19.2	61	8.0	0	0	---	0.00	30.513 
20:45	19.1	19.1	19.1	61	7.9	0	0	---	0.00	30.512 
20:50	18.9	18.9	18.9	61	7.7	0	0	---	0.00	30.512 
20:55	18.8	18.8	18.8	62	8.0	0	0	---	0.00	30.512 
21:00	18.8	18.8	18.8	64	8.7	0	0	---	0.00	30.513 
21:05	18.9	18.9	18.9	65	9.1	0	0	---	0.00	30.513 
21:10	19.1	19.1	19.1	66	9.6	0	0	---	0.00	30.513 
21:15	19.2	19.2	19.2	66	9.7	0	0	---	0.00	30.509 
21:20	19.4	19.4	19.4	68	10.6	0	0	---	0.00	30.509 
21:25	19.9	19.9	19.9	69	11.4	0	0	---	0.00	30.509 
21:30	20.2	20.2	20.2	69	11.7	0	0	---	0.00	30.511 
21:35	20.5	20.5	20.5	69	12.0	0	0	---	0.00	30.511 
21:40	20.6	20.6	20.6	69	12.1	0	0	---	0.00	30.511 
21:45	20.8	20.8	20.8	69	12.3	0	0	---	0.00	30.509 
21:50	21.1	21.1	21.1	69	12.5	0	0	---	0.00	30.509 
21:55	21.3	21.3	21.3	69	12.7	0	0	---	0.00	30.509 
22:00	21.6	21.6	21.6	69	13.0	0	0	---	0.00	30.509 
22:05	21.8	21.8	21.8	69	13.2	0	0	---	0.00	30.509 
22:10	21.9	21.9	21.9	68	13.0	0	0	---	0.00	30.509 
22:15	22.1	22.1	22.1	67	12.8	0	0	---	0.00	30.506 
22:20	22.2	22.2	22.2	65	12.3	0	0	---	0.00	30.506 
22:25	22.4	22.4	22.4	64	12.1	0	0	---	0.00	30.506 
22:30	22.7	22.7	22.7	63	12.0	0	0	---	0.00	30.506 
22:35	23.0	23.0	23.0	63	12.3	0	0	---	0.00	30.506 
22:40	23.2	23.2	23.2	62	12.1	0	0	---	0.00	30.506 
22:45	23.3	23.3	23.3	62	12.2	0	0	---	0.00	30.507 
22:50	23.5	23.5	23.5	62	12.4	0	1	248	0.00	30.507 
22:55	23.5	23.5	23.5	61	12.1	0	0	---	0.00	30.507 
23:00	23.5	23.5	23.5	59	11.3	0	0	---	0.00	30.506 
23:05	23.3	23.3	23.3	59	11.1	0	1	248	0.00	30.506 
23:10	23.3	23.3	23.3	59	11.1	0	0	---	0.00	30.506 
23:15	23.2	23.2	23.2	59	11.0	0	0	---	0.00	30.505 
23:20	22.9	22.9	22.9	59	10.7	0	0	---	0.00	30.505 
23:25	22.5	22.5	22.5	60	10.7	0	0	---	0.00	30.505 
23:30	22.1	22.1	22.1	60	10.4	0	0	---	0.00	30.513 
23:35	21.8	21.8	21.8	61	10.4	0	0	---	0.00	30.513 
23:40	21.4	21.4	21.4	62	10.4	0	0	---	0.00	30.513 
23:45	21.1	21.1	21.1	63	10.5	0	0	---	0.00	30.507 
23:50	20.8	20.8	20.8	65	10.9	0	0	---	0.00	30.507 
23:55	20.5	20.5	20.5	66	11.0	0	0	---	0.00	30.507 

CoCoRaHS
IN-AL-39
A2 Web Hosting
Creative Commons License
GoDaddy
search engine by freefind advanced

loaded 2018-11-19 19:19:54 • last modified 2010-11-18 10:43:29
Privacy PolicyDisclaimer
• wx.awcolley.com is powered by PmWiki v.2002016 •
• all content (unless otherwise noted) © 2018 A W Colley